createdAt,value
2018-04-25T00:00:25.032Z,8.12
2018-04-25T00:01:25.015Z,8.02
2018-04-25T00:02:24.954Z,8.01
2018-04-25T00:03:24.981Z,7.98
2018-04-25T00:04:24.916Z,7.98
2018-04-25T00:05:24.854Z,8.01
2018-04-25T00:06:24.801Z,7.86
2018-04-25T00:07:24.773Z,7.80
2018-04-25T00:08:24.736Z,7.75
2018-04-25T00:09:24.709Z,7.86
2018-04-25T00:10:24.658Z,7.89
2018-04-25T00:11:24.611Z,7.90
2018-04-25T00:12:24.576Z,7.75
2018-04-25T00:13:24.519Z,7.75
2018-04-25T00:14:24.515Z,7.77
2018-04-25T00:15:24.452Z,8.00
2018-04-25T00:16:24.406Z,7.98
2018-04-25T00:17:24.382Z,8.02
2018-04-25T00:18:24.382Z,7.98
2018-04-25T00:19:24.341Z,8.12
2018-04-25T00:20:24.242Z,8.26
2018-04-25T00:21:24.233Z,8.19
2018-04-25T00:22:24.173Z,8.33
2018-04-25T00:23:24.176Z,8.25
2018-04-25T00:24:24.166Z,8.20
2018-04-25T00:25:24.061Z,8.25
2018-04-25T00:26:24.022Z,8.38
2018-04-25T00:27:23.991Z,8.45
2018-04-25T00:28:23.940Z,8.45
2018-04-25T00:29:23.915Z,8.23
2018-04-25T00:30:23.864Z,8.28
2018-04-25T00:31:23.828Z,8.33
2018-04-25T00:32:23.789Z,8.25
2018-04-25T00:33:23.739Z,8.22
2018-04-25T00:34:23.700Z,8.23
2018-04-25T00:35:23.671Z,8.34
2018-04-25T00:36:23.671Z,8.22
2018-04-25T00:37:23.600Z,8.23
2018-04-25T00:38:23.553Z,8.28
2018-04-25T00:39:23.508Z,8.18
2018-04-25T00:40:23.508Z,8.12
2018-04-25T00:41:23.451Z,8.19
2018-04-25T00:42:23.422Z,8.10
2018-04-25T00:43:23.363Z,8.01
2018-04-25T00:44:24.075Z,8.15
2018-04-25T00:45:23.280Z,8.04
2018-04-25T00:46:23.259Z,8.15
2018-04-25T00:47:23.213Z,8.22
2018-04-25T00:48:23.195Z,8.23
2018-04-25T00:49:23.118Z,8.20
2018-04-25T00:50:23.120Z,8.20
2018-04-25T00:51:23.121Z,8.20
2018-04-25T00:52:23.012Z,8.20
2018-04-25T00:53:22.983Z,8.19
2018-04-25T00:54:22.928Z,8.18
2018-04-25T00:55:22.900Z,8.47
2018-04-25T00:56:22.862Z,8.47
2018-04-25T00:57:22.842Z,8.36
2018-04-25T00:58:22.763Z,8.28
2018-04-25T00:59:22.735Z,8.08
2018-04-25T01:00:22.694Z,8.04
2018-04-25T01:01:22.651Z,8.16
2018-04-25T01:02:22.651Z,8.29
2018-04-25T01:03:22.570Z,8.04
2018-04-25T01:04:22.567Z,7.95
2018-04-25T01:05:22.518Z,7.89
2018-04-25T01:06:22.482Z,8.04
2018-04-25T01:07:22.419Z,7.98
2018-04-25T01:08:22.385Z,7.90
2018-04-25T01:09:22.373Z,7.89
2018-04-25T01:10:22.386Z,7.79
2018-04-25T01:11:22.269Z,7.75
2018-04-25T01:12:22.227Z,7.72
2018-04-25T01:13:22.216Z,7.69
2018-04-25T01:14:22.183Z,7.71
2018-04-25T01:15:22.105Z,7.74
2018-04-25T01:16:22.110Z,7.71
2018-04-25T01:17:22.070Z,7.71
2018-04-25T01:18:22.031Z,7.61
2018-04-25T01:19:22.486Z,7.77
2018-04-25T01:20:21.918Z,7.75
2018-04-25T01:21:21.913Z,7.75
2018-04-25T01:22:21.852Z,7.74
2018-04-25T01:23:21.810Z,7.69
2018-04-25T01:24:21.785Z,7.63
2018-04-25T01:25:21.734Z,7.77
2018-04-25T01:26:21.690Z,7.75
2018-04-25T01:27:21.655Z,7.80
2018-04-25T01:28:21.619Z,7.92
2018-04-25T01:29:21.593Z,8.02
2018-04-25T01:30:21.562Z,7.77
2018-04-25T01:31:21.513Z,7.75
2018-04-25T01:32:21.500Z,7.74
2018-04-25T01:33:21.418Z,7.77
2018-04-25T01:34:21.366Z,7.87
2018-04-25T01:35:21.327Z,7.71
2018-04-25T01:36:21.295Z,8.00
2018-04-25T01:37:21.266Z,7.90
2018-04-25T01:38:21.241Z,7.86
2018-04-25T01:39:21.186Z,7.90
2018-04-25T01:40:21.172Z,7.79
2018-04-25T01:41:21.094Z,7.77
2018-04-25T01:42:21.186Z,7.69
2018-04-25T01:43:21.034Z,7.71
2018-04-25T01:44:21.021Z,7.74
2018-04-25T01:45:20.954Z,7.69
2018-04-25T01:46:20.924Z,7.75
2018-04-25T01:47:20.893Z,8.00
2018-04-25T01:48:20.858Z,8.00
2018-04-25T01:49:20.819Z,7.93
2018-04-25T01:50:20.752Z,8.01
2018-04-25T01:51:20.712Z,8.10
2018-04-25T01:52:20.670Z,7.90
2018-04-25T01:53:20.638Z,7.95
2018-04-25T01:54:20.615Z,7.95
2018-04-25T01:55:20.564Z,7.89
2018-04-25T01:56:20.500Z,7.92
2018-04-25T01:57:20.477Z,7.89
2018-04-25T01:58:20.433Z,7.82
2018-04-25T01:59:20.405Z,7.85
2018-04-25T02:00:20.341Z,7.95
2018-04-25T02:01:20.315Z,7.95
2018-04-25T02:02:20.285Z,7.93
2018-04-25T02:03:20.248Z,7.75
2018-04-25T02:04:20.247Z,7.97
2018-04-25T02:05:20.189Z,8.23
2018-04-25T02:06:20.138Z,8.10
2018-04-25T02:07:20.083Z,8.12
2018-04-25T02:08:20.041Z,8.23
2018-04-25T02:09:20.015Z,8.11
2018-04-25T02:10:19.995Z,8.11
2018-04-25T02:11:19.922Z,8.04
2018-04-25T02:12:19.885Z,8.25
2018-04-25T02:13:19.877Z,8.10
2018-04-25T02:14:19.832Z,8.00
2018-04-25T02:15:19.771Z,8.19
2018-04-25T02:16:19.727Z,8.04
2018-04-25T02:17:19.711Z,8.02
2018-04-25T02:18:19.669Z,8.01
2018-04-25T02:19:19.630Z,8.16
2018-04-25T02:20:19.573Z,8.16
2018-04-25T02:21:19.559Z,8.10
2018-04-25T02:22:19.506Z,8.11
2018-04-25T02:23:19.440Z,8.08
2018-04-25T02:24:19.420Z,8.05
2018-04-25T02:25:19.413Z,7.93
2018-04-25T02:26:19.363Z,7.92
2018-04-25T02:27:19.307Z,7.92
2018-04-25T02:28:19.256Z,7.93
2018-04-25T02:29:19.225Z,8.08
2018-04-25T02:30:19.179Z,7.93
2018-04-25T02:31:19.153Z,7.87
2018-04-25T02:32:19.132Z,7.71
2018-04-25T02:33:19.048Z,7.71
2018-04-25T02:34:19.059Z,8.01
2018-04-25T02:35:18.987Z,8.10
2018-04-25T02:36:18.948Z,7.90
2018-04-25T02:37:18.919Z,8.01
2018-04-25T02:38:18.863Z,8.18
2018-04-25T02:39:18.862Z,8.01
2018-04-25T02:40:18.798Z,8.18
2018-04-25T02:41:18.741Z,8.12
2018-04-25T02:42:18.722Z,8.22
2018-04-25T02:43:18.664Z,8.15
2018-04-25T02:44:18.633Z,8.40
2018-04-25T02:45:18.611Z,8.33
2018-04-25T02:46:18.655Z,8.19
2018-04-25T02:47:18.532Z,8.22
2018-04-25T02:48:18.502Z,8.47
2018-04-25T02:49:18.457Z,8.50
2018-04-25T02:50:18.397Z,8.23
2018-04-25T02:51:18.349Z,8.40
2018-04-25T02:52:18.329Z,8.66
2018-04-25T02:53:18.304Z,8.34
2018-04-25T02:54:18.257Z,8.71
2018-04-25T02:55:18.257Z,8.86
2018-04-25T02:56:18.169Z,8.68
2018-04-25T02:57:18.150Z,8.66
2018-04-25T02:58:18.073Z,8.91
2018-04-25T02:59:18.048Z,9.14
2018-04-25T03:00:18.006Z,9.32
2018-04-25T03:01:17.976Z,9.43
2018-04-25T03:02:17.929Z,9.35
2018-04-25T03:03:17.881Z,9.96
2018-04-25T03:04:17.867Z,10.11
2018-04-25T03:05:17.829Z,9.94
2018-04-25T03:06:17.766Z,9.89
2018-04-25T03:07:17.727Z,9.75
2018-04-25T03:08:17.706Z,10.32
2018-04-25T03:09:17.651Z,10.52
2018-04-25T03:10:17.612Z,10.34
2018-04-25T03:11:17.567Z,10.12
2018-04-25T03:12:17.528Z,10.63
2018-04-25T03:13:17.500Z,10.79
2018-04-25T03:14:17.462Z,10.61
2018-04-25T03:15:17.438Z,10.32
2018-04-25T03:16:17.385Z,10.14
2018-04-25T03:17:17.397Z,9.90
2018-04-25T03:18:17.301Z,9.91
2018-04-25T03:19:17.281Z,9.78
2018-04-25T03:20:17.214Z,9.83
2018-04-25T03:21:17.184Z,10.02
2018-04-25T03:22:17.157Z,10.41
2018-04-25T03:23:17.126Z,10.52
2018-04-25T03:24:17.115Z,10.44
2018-04-25T03:25:17.031Z,10.52
2018-04-25T03:26:16.978Z,10.26
2018-04-25T03:27:16.949Z,10.12
2018-04-25T03:28:16.969Z,10.07
2018-04-25T03:29:16.900Z,9.97
2018-04-25T03:30:16.831Z,9.96
2018-04-25T03:31:16.793Z,9.79
2018-04-25T03:32:16.760Z,9.71
2018-04-25T03:33:16.756Z,9.68
2018-04-25T03:34:16.694Z,9.68
2018-04-25T03:35:16.650Z,9.87
2018-04-25T03:36:16.611Z,10.30
2018-04-25T03:37:16.688Z,10.20
2018-04-25T03:38:16.596Z,10.07
2018-04-25T03:39:16.495Z,10.12
2018-04-25T03:40:16.456Z,10.02
2018-04-25T03:41:16.416Z,10.20
2018-04-25T03:42:16.359Z,10.26
2018-04-25T03:43:16.353Z,10.09
2018-04-25T03:44:16.312Z,10.23
2018-04-25T03:45:16.251Z,10.14
2018-04-25T03:46:16.214Z,10.05
2018-04-25T03:47:16.177Z,9.94
2018-04-25T03:48:16.153Z,9.89
2018-04-25T03:49:16.100Z,9.76
2018-04-25T03:50:16.119Z,9.68
2018-04-25T03:51:16.030Z,9.76
2018-04-25T03:52:16.013Z,9.71
2018-04-25T03:53:15.955Z,9.68
2018-04-25T03:54:15.916Z,9.94
2018-04-25T03:55:15.865Z,10.01
2018-04-25T03:56:15.835Z,9.72
2018-04-25T03:57:15.846Z,9.65
2018-04-25T03:58:15.768Z,9.50
2018-04-25T03:59:15.725Z,9.53
2018-04-25T04:00:15.709Z,9.64
2018-04-25T04:01:15.641Z,10.14
2018-04-25T04:02:15.593Z,10.05
2018-04-25T04:03:15.598Z,10.12
2018-04-25T04:04:15.557Z,10.08
2018-04-25T04:05:15.538Z,10.12
2018-04-25T04:06:15.480Z,9.90
2018-04-25T04:07:16.031Z,9.94
2018-04-25T04:08:15.510Z,9.76
2018-04-25T04:09:15.394Z,9.71
2018-04-25T04:10:15.314Z,9.61
2018-04-25T04:11:15.267Z,10.23
2018-04-25T04:12:15.201Z,10.25
2018-04-25T04:13:15.192Z,10.22
2018-04-25T04:14:15.146Z,10.02
2018-04-25T04:15:15.113Z,10.07
2018-04-25T04:16:15.065Z,10.23
2018-04-25T04:17:15.022Z,10.12
2018-04-25T04:18:14.993Z,9.97
2018-04-25T04:19:14.957Z,10.15
2018-04-25T04:20:14.926Z,10.23
2018-04-25T04:21:14.912Z,10.29
2018-04-25T04:22:14.853Z,10.22
2018-04-25T04:23:14.792Z,10.40
2018-04-25T04:24:14.744Z,10.41
2018-04-25T04:25:14.735Z,10.32
2018-04-25T04:26:14.678Z,10.25
2018-04-25T04:27:14.642Z,10.17
2018-04-25T04:28:14.614Z,10.01
2018-04-25T04:29:14.574Z,9.91
2018-04-25T04:30:14.519Z,9.81
2018-04-25T04:31:14.501Z,9.78
2018-04-25T04:32:14.439Z,9.97
2018-04-25T04:33:14.456Z,9.99
2018-04-25T04:34:14.365Z,9.99
2018-04-25T04:35:14.331Z,9.99
2018-04-25T04:36:14.318Z,9.84
2018-04-25T04:37:14.257Z,10.11
2018-04-25T04:38:14.228Z,10.04
2018-04-25T04:39:14.196Z,10.12
2018-04-25T04:40:14.128Z,10.26
2018-04-25T04:41:14.145Z,10.22
2018-04-25T04:42:14.064Z,10.30
2018-04-25T04:43:14.052Z,10.84
2018-04-25T04:44:13.987Z,10.76
2018-04-25T04:45:13.968Z,10.82
2018-04-25T04:46:13.912Z,10.74
2018-04-25T04:47:13.904Z,10.61
2018-04-25T04:48:13.846Z,10.86
2018-04-25T04:49:13.799Z,11.07
2018-04-25T04:50:13.759Z,11.85
2018-04-25T04:51:13.719Z,12.49
2018-04-25T04:52:13.678Z,12.31
2018-04-25T04:53:13.670Z,12.24
2018-04-25T04:54:13.643Z,13.03
2018-04-25T04:55:13.563Z,13.48
2018-04-25T04:56:13.547Z,13.54
2018-04-25T04:57:13.525Z,13.71
2018-04-25T04:58:13.465Z,13.84
2018-04-25T04:59:13.421Z,13.69
2018-04-25T05:00:13.386Z,13.45
2018-04-25T05:01:13.418Z,13.25
2018-04-25T05:02:13.302Z,13.36
2018-04-25T05:03:13.261Z,13.55
2018-04-25T05:04:13.257Z,13.62
2018-04-25T05:05:13.212Z,13.81
2018-04-25T05:06:13.155Z,14.25
2018-04-25T05:07:13.128Z,14.43
2018-04-25T05:08:13.092Z,14.37
2018-04-25T05:09:13.063Z,14.37
2018-04-25T05:10:13.060Z,14.58
2018-04-25T05:11:12.987Z,14.54
2018-04-25T05:12:12.973Z,14.58
2018-04-25T05:13:12.935Z,14.89
2018-04-25T05:14:12.865Z,14.73
2018-04-25T05:15:12.869Z,14.77
2018-04-25T05:16:12.794Z,14.91
2018-04-25T05:17:12.769Z,14.69
2018-04-25T05:18:12.735Z,14.57
2018-04-25T05:19:12.691Z,14.69
2018-04-25T05:20:12.642Z,14.58
2018-04-25T05:21:12.633Z,14.65
2018-04-25T05:22:12.582Z,14.72
2018-04-25T05:23:12.534Z,14.73
2018-04-25T05:24:12.541Z,14.52
2018-04-25T05:25:12.470Z,14.46
2018-04-25T05:26:12.429Z,14.50
2018-04-25T05:27:12.411Z,14.64
2018-04-25T05:28:12.363Z,14.64
2018-04-25T05:29:13.076Z,14.68
2018-04-25T05:30:12.290Z,14.89
2018-04-25T05:31:12.321Z,15.01
2018-04-25T05:32:12.370Z,15.07
2018-04-25T05:33:12.186Z,15.06
2018-04-25T05:34:12.177Z,15.01
2018-04-25T05:35:13.057Z,15.13
2018-04-25T05:36:12.074Z,15.02
2018-04-25T05:37:12.045Z,15.06
2018-04-25T05:38:12.000Z,15.07
2018-04-25T05:39:12.551Z,15.09
2018-04-25T05:40:11.927Z,15.13
2018-04-25T05:41:11.929Z,15.16
2018-04-25T05:42:12.556Z,15.28
2018-04-25T05:43:11.855Z,15.21
2018-04-25T05:44:11.788Z,15.36
2018-04-25T05:45:11.775Z,15.29
2018-04-25T05:46:11.718Z,15.25
2018-04-25T05:47:11.711Z,15.32
2018-04-25T05:48:11.685Z,15.41
2018-04-25T05:49:11.614Z,15.43
2018-04-25T05:50:11.583Z,15.65
2018-04-25T05:51:11.537Z,15.64
2018-04-25T05:52:11.505Z,15.53
2018-04-25T05:53:11.489Z,15.71
2018-04-25T05:54:11.567Z,15.53
2018-04-25T05:55:11.500Z,15.65
2018-04-25T05:56:11.381Z,15.69
2018-04-25T05:57:11.391Z,15.82
2018-04-25T05:58:11.347Z,15.72
2018-04-25T05:59:11.268Z,15.76
2018-04-25T06:00:11.335Z,15.92
2018-04-25T06:01:11.223Z,15.82
2018-04-25T06:02:11.190Z,15.83
2018-04-25T06:03:11.148Z,15.72
2018-04-25T06:04:11.092Z,15.90
2018-04-25T06:05:11.065Z,15.92
2018-04-25T06:06:11.083Z,16.08
2018-04-25T06:07:11.110Z,16.09
2018-04-25T06:08:11.065Z,16.23
2018-04-25T06:09:10.930Z,16.42
2018-04-25T06:10:10.890Z,16.41
2018-04-25T06:11:10.864Z,16.53
2018-04-25T06:12:10.835Z,16.64
2018-04-25T06:13:10.802Z,16.83
2018-04-25T06:14:10.772Z,16.75
2018-04-25T06:15:10.736Z,16.56
2018-04-25T06:16:10.706Z,16.61
2018-04-25T06:17:10.719Z,16.68
2018-04-25T06:18:10.635Z,16.75
2018-04-25T06:19:10.605Z,16.67
2018-04-25T06:20:10.661Z,16.64
2018-04-25T06:21:10.568Z,16.78
2018-04-25T06:22:10.514Z,16.79
2018-04-25T06:23:10.483Z,16.70
2018-04-25T06:24:10.488Z,16.67
2018-04-25T06:25:10.417Z,16.70
2018-04-25T06:26:10.366Z,16.60
2018-04-25T06:27:10.338Z,16.76
2018-04-25T06:28:10.358Z,16.78
2018-04-25T06:29:10.270Z,16.85
2018-04-25T06:30:10.226Z,16.82
2018-04-25T06:31:10.181Z,16.75
2018-04-25T06:32:10.153Z,16.81
2018-04-25T06:33:10.167Z,16.85
2018-04-25T06:34:10.139Z,17.06
2018-04-25T06:35:10.087Z,17.19
2018-04-25T06:36:10.030Z,17.22
2018-04-25T06:37:09.990Z,17.37
2018-04-25T06:38:10.063Z,17.37
2018-04-25T06:39:09.917Z,17.62
2018-04-25T06:40:09.932Z,17.59
2018-04-25T06:41:09.867Z,17.58
2018-04-25T06:42:09.851Z,17.95
2018-04-25T06:43:09.802Z,17.99
2018-04-25T06:44:09.777Z,18.14
2018-04-25T06:45:09.741Z,18.30
2018-04-25T06:46:09.687Z,18.50
2018-04-25T06:47:09.656Z,18.37
2018-04-25T06:48:09.636Z,18.58
2018-04-25T06:49:09.608Z,18.72
2018-04-25T06:50:09.590Z,18.47
2018-04-25T06:51:09.528Z,18.51
2018-04-25T06:52:09.517Z,18.66
2018-04-25T06:53:09.476Z,19.18
2018-04-25T06:54:09.448Z,19.66
2018-04-25T06:55:09.427Z,19.76
2018-04-25T06:56:09.401Z,20.48
2018-04-25T06:57:09.343Z,20.13
2018-04-25T06:58:09.310Z,21.01
2018-04-25T06:59:09.279Z,21.74
2018-04-25T07:00:09.262Z,21.72
2018-04-25T07:01:09.227Z,22.39
2018-04-25T07:02:09.209Z,22.12
2018-04-25T07:03:09.169Z,22.47
2018-04-25T07:04:09.135Z,22.37
2018-04-25T07:05:09.117Z,22.24
2018-04-25T07:06:09.082Z,21.80
2018-04-25T07:07:09.048Z,21.75
2018-04-25T07:08:09.054Z,21.01
2018-04-25T07:09:09.070Z,22.18
2018-04-25T07:10:08.992Z,23.04
2018-04-25T07:11:08.979Z,22.98
2018-04-25T07:12:08.936Z,22.47
2018-04-25T07:13:08.909Z,22.61
2018-04-25T07:14:08.903Z,22.94
2018-04-25T07:15:08.856Z,20.98
2018-04-25T07:16:08.853Z,22.64
2018-04-25T07:17:08.835Z,22.75
2018-04-25T07:18:08.782Z,22.92
2018-04-25T07:19:08.768Z,23.23
2018-04-25T07:20:08.727Z,22.94
2018-04-25T07:21:08.810Z,23.02
2018-04-25T07:22:08.682Z,22.88
2018-04-25T07:23:08.663Z,22.85
2018-04-25T07:24:08.636Z,22.94
2018-04-25T07:25:08.620Z,23.27
2018-04-25T07:26:08.600Z,23.12
2018-04-25T07:27:08.593Z,22.39
2018-04-25T07:28:08.558Z,23.01
2018-04-25T07:29:08.557Z,21.99
2018-04-25T07:30:08.507Z,22.42
2018-04-25T07:31:08.509Z,22.73
2018-04-25T07:32:08.464Z,23.48
2018-04-25T07:33:08.486Z,22.57
2018-04-25T07:34:08.448Z,22.02
2018-04-25T07:35:08.399Z,22.67
2018-04-25T07:36:08.372Z,22.64
2018-04-25T07:37:08.403Z,22.95
2018-04-25T07:38:08.354Z,22.62
2018-04-25T07:39:08.340Z,23.20
2018-04-25T07:40:08.316Z,23.72
2018-04-25T07:41:08.274Z,23.23
2018-04-25T07:42:08.258Z,23.51
2018-04-25T07:43:08.237Z,22.82
2018-04-25T07:44:08.222Z,22.64
2018-04-25T07:45:08.194Z,22.61
2018-04-25T07:46:08.167Z,22.68
2018-04-25T07:47:08.141Z,22.91
2018-04-25T07:48:08.134Z,22.33
2018-04-25T07:49:08.101Z,21.92
2018-04-25T07:50:08.097Z,22.12
2018-04-25T07:51:08.079Z,23.20
2018-04-25T07:52:08.239Z,21.49
2018-04-25T07:53:08.051Z,21.92
2018-04-25T07:54:08.026Z,21.82
2018-04-25T07:55:08.013Z,23.00
2018-04-25T07:56:07.979Z,22.79
2018-04-25T07:57:07.949Z,22.05
2018-04-25T07:58:07.941Z,23.25
2018-04-25T07:59:07.931Z,22.73
2018-04-25T08:00:07.895Z,22.97
2018-04-25T08:01:07.854Z,23.02
2018-04-25T08:02:07.857Z,23.72
2018-04-25T08:03:08.612Z,21.24
2018-04-25T08:04:07.803Z,20.59
2018-04-25T08:05:07.793Z,22.03
2018-04-25T08:06:07.764Z,23.33
2018-04-25T08:07:07.741Z,22.68
2018-04-25T08:08:07.723Z,22.31
2018-04-25T08:09:07.726Z,21.50
2018-04-25T08:10:07.735Z,21.47
2018-04-25T08:11:07.681Z,21.28
2018-04-25T08:12:07.657Z,21.32
2018-04-25T08:13:07.616Z,20.62
2018-04-25T08:14:07.594Z,20.48
2018-04-25T08:15:07.578Z,20.24
2018-04-25T08:16:07.551Z,20.20
2018-04-25T08:17:07.553Z,20.26
2018-04-25T08:18:07.521Z,20.05
2018-04-25T08:19:07.513Z,20.23
2018-04-25T08:20:07.507Z,19.62
2018-04-25T08:21:07.452Z,19.94
2018-04-25T08:22:07.425Z,19.68
2018-04-25T08:23:07.411Z,20.11
2018-04-25T08:24:07.374Z,20.13
2018-04-25T08:25:07.343Z,20.08
2018-04-25T08:26:07.337Z,19.98
2018-04-25T08:27:07.336Z,19.66
2018-04-25T08:28:07.365Z,20.38
2018-04-25T08:29:07.305Z,19.51
2018-04-25T08:30:07.204Z,19.11
2018-04-25T08:31:07.202Z,19.18
2018-04-25T08:32:07.180Z,19.44
2018-04-25T08:33:07.189Z,19.74
2018-04-25T08:34:07.123Z,20.03
2018-04-25T08:35:07.116Z,19.69
2018-04-25T08:36:07.076Z,19.92
2018-04-25T08:37:07.046Z,20.18
2018-04-25T08:38:07.016Z,20.24
2018-04-25T08:39:07.008Z,20.43
2018-04-25T08:40:06.989Z,20.38
2018-04-25T08:41:06.915Z,20.23
2018-04-25T08:42:06.911Z,19.95
2018-04-25T08:43:06.939Z,19.59
2018-04-25T08:44:06.836Z,19.59
2018-04-25T08:45:06.920Z,19.88
2018-04-25T08:46:06.783Z,19.62
2018-04-25T08:47:06.812Z,19.98
2018-04-25T08:48:06.731Z,19.65
2018-04-25T08:49:06.738Z,19.63
2018-04-25T08:50:06.707Z,19.51
2018-04-25T08:51:06.674Z,19.58
2018-04-25T08:52:06.636Z,19.88
2018-04-25T08:53:06.617Z,20.06
2018-04-25T08:54:06.579Z,21.13
2018-04-25T08:55:06.571Z,20.79
2018-04-25T08:56:07.127Z,20.42
2018-04-25T08:57:06.490Z,20.03
2018-04-25T08:58:06.451Z,19.63
2018-04-25T08:59:06.427Z,19.44
2018-04-25T09:00:06.405Z,19.48
2018-04-25T09:01:06.410Z,19.48
2018-04-25T09:02:06.371Z,19.80
2018-04-25T09:03:06.350Z,19.62
2018-04-25T09:04:06.311Z,19.63
2018-04-25T09:05:06.254Z,19.59
2018-04-25T09:06:06.240Z,19.36
2018-04-25T09:07:06.196Z,19.29
2018-04-25T09:08:06.194Z,19.18
2018-04-25T09:09:06.157Z,19.11
2018-04-25T09:10:06.142Z,19.13
2018-04-25T09:11:06.111Z,19.36
2018-04-25T09:12:06.051Z,19.61
2018-04-25T09:13:06.030Z,20.43
2018-04-25T09:14:06.036Z,21.07
2018-04-25T09:15:06.040Z,20.24
2018-04-25T09:16:05.959Z,20.05
2018-04-25T09:17:05.914Z,21.44
2018-04-25T09:18:05.901Z,22.09
2018-04-25T09:19:05.909Z,21.32
2018-04-25T09:20:05.841Z,20.57
2018-04-25T09:21:05.813Z,20.36
2018-04-25T09:22:05.763Z,20.02
2018-04-25T09:23:05.758Z,19.74
2018-04-25T09:24:05.735Z,19.61
2018-04-25T09:25:05.685Z,19.51
2018-04-25T09:26:05.675Z,19.37
2018-04-25T09:27:05.635Z,19.33
2018-04-25T09:28:05.615Z,19.46
2018-04-25T09:29:05.582Z,19.47
2018-04-25T09:30:05.580Z,19.46
2018-04-25T09:31:05.660Z,19.21
2018-04-25T09:32:05.503Z,19.36
2018-04-25T09:33:05.471Z,19.33
2018-04-25T09:34:05.463Z,19.41
2018-04-25T09:35:05.426Z,19.69
2018-04-25T09:36:05.413Z,19.48
2018-04-25T09:37:05.395Z,19.47
2018-04-25T09:38:05.318Z,19.54
2018-04-25T09:39:05.306Z,19.50
2018-04-25T09:40:05.257Z,19.51
2018-04-25T09:41:05.221Z,19.61
2018-04-25T09:42:05.211Z,19.95
2018-04-25T09:43:05.200Z,19.78
2018-04-25T09:44:05.161Z,19.56
2018-04-25T09:45:05.135Z,19.40
2018-04-25T09:46:05.092Z,19.48
2018-04-25T09:47:05.064Z,20.38
2018-04-25T09:48:05.070Z,19.95
2018-04-25T09:49:05.003Z,20.06
2018-04-25T09:50:04.975Z,19.81
2018-04-25T09:51:04.935Z,19.33
2018-04-25T09:52:04.955Z,19.44
2018-04-25T09:53:04.878Z,18.92
2018-04-25T09:54:04.854Z,19.37
2018-04-25T09:55:04.831Z,19.23
2018-04-25T09:56:04.805Z,19.10
2018-04-25T09:57:04.756Z,19.08
2018-04-25T09:58:04.756Z,19.31
2018-04-25T09:59:04.711Z,19.39
2018-04-25T10:00:04.714Z,19.37
2018-04-25T10:01:04.661Z,19.07
2018-04-25T10:02:04.628Z,18.98
2018-04-25T10:03:04.622Z,18.92
2018-04-25T10:04:04.622Z,18.73
2018-04-25T10:05:04.560Z,18.65
2018-04-25T10:06:04.515Z,18.60
2018-04-25T10:07:04.484Z,18.52
2018-04-25T10:08:04.468Z,18.75
2018-04-25T10:09:04.444Z,18.90
2018-04-25T10:10:04.477Z,18.98
2018-04-25T10:11:04.366Z,19.00
2018-04-25T10:12:04.378Z,18.94
2018-04-25T10:13:04.300Z,18.70
2018-04-25T10:14:04.288Z,18.92
2018-04-25T10:15:04.280Z,18.80
2018-04-25T10:16:04.232Z,18.73
2018-04-25T10:17:04.280Z,19.08
2018-04-25T10:18:04.166Z,19.22
2018-04-25T10:19:04.137Z,18.94
2018-04-25T10:20:04.101Z,18.91
2018-04-25T10:21:04.063Z,18.76
2018-04-25T10:22:04.058Z,19.10
2018-04-25T10:23:04.012Z,18.94
2018-04-25T10:24:03.982Z,18.72
2018-04-25T10:25:04.012Z,19.04
2018-04-25T10:26:03.926Z,20.05
2018-04-25T10:27:03.892Z,20.59
2018-04-25T10:28:03.856Z,20.52
2018-04-25T10:29:03.840Z,19.94
2018-04-25T10:30:03.887Z,21.54
2018-04-25T10:31:03.782Z,21.38
2018-04-25T10:32:03.800Z,20.95
2018-04-25T10:33:03.749Z,20.64
2018-04-25T10:34:03.686Z,21.49
2018-04-25T10:35:03.664Z,20.73
2018-04-25T10:36:03.638Z,20.51
2018-04-25T10:37:03.707Z,21.82
2018-04-25T10:38:03.592Z,21.28
2018-04-25T10:39:03.533Z,19.95
2018-04-25T10:40:03.523Z,20.06
2018-04-25T10:41:03.488Z,20.18
2018-04-25T10:42:03.471Z,20.66
2018-04-25T10:43:03.466Z,20.42
2018-04-25T10:44:03.420Z,20.89
2018-04-25T10:45:03.377Z,21.54
2018-04-25T10:46:03.374Z,20.91
2018-04-25T10:47:03.336Z,20.35
2018-04-25T10:48:03.290Z,20.88
2018-04-25T10:49:03.271Z,20.33
2018-04-25T10:50:03.261Z,20.21
2018-04-25T10:51:03.217Z,20.43
2018-04-25T10:52:03.192Z,20.06
2018-04-25T10:53:03.149Z,19.91
2018-04-25T10:54:03.201Z,19.80
2018-04-25T10:55:03.144Z,19.99
2018-04-25T10:56:03.072Z,19.61
2018-04-25T10:57:03.091Z,19.58
2018-04-25T10:58:03.059Z,19.41
2018-04-25T10:59:02.992Z,20.06
2018-04-25T11:00:02.958Z,20.28
2018-04-25T11:01:02.937Z,21.07
2018-04-25T11:02:02.906Z,20.70
2018-04-25T11:03:02.887Z,21.52
2018-04-25T11:04:02.873Z,21.13
2018-04-25T11:05:02.831Z,19.83
2018-04-25T11:06:02.806Z,20.33
2018-04-25T11:07:02.819Z,20.21
2018-04-25T11:08:02.761Z,20.32
2018-04-25T11:09:02.740Z,19.78
2018-04-25T11:10:02.682Z,21.38
2018-04-25T11:11:02.688Z,21.24
2018-04-25T11:12:02.651Z,20.48
2018-04-25T11:13:02.601Z,20.47
2018-04-25T11:14:02.609Z,20.17
2018-04-25T11:15:02.599Z,20.21
2018-04-25T11:16:02.533Z,20.95
2018-04-25T11:17:02.508Z,21.94
2018-04-25T11:18:02.501Z,22.49
2018-04-25T11:19:02.438Z,21.91
2018-04-25T11:20:02.416Z,21.52
2018-04-25T11:21:02.406Z,21.19
2018-04-25T11:22:02.377Z,20.97
2018-04-25T11:23:02.352Z,21.03
2018-04-25T11:24:02.346Z,22.10
2018-04-25T11:25:02.261Z,21.56
2018-04-25T11:26:02.259Z,20.91
2018-04-25T11:27:02.235Z,20.20
2018-04-25T11:28:02.222Z,20.36
2018-04-25T11:29:02.190Z,20.24
2018-04-25T11:30:02.156Z,20.21
2018-04-25T11:31:02.107Z,19.92
2018-04-25T11:32:02.104Z,19.83
2018-04-25T11:33:02.064Z,19.76
2018-04-25T11:34:02.039Z,19.74
2018-04-25T11:35:02.040Z,19.39
2018-04-25T11:36:01.983Z,19.25
2018-04-25T11:37:01.976Z,19.06
2018-04-25T11:38:01.953Z,18.87
2018-04-25T11:39:01.929Z,19.02
2018-04-25T11:40:01.896Z,19.26
2018-04-25T11:41:01.856Z,19.14
2018-04-25T11:42:02.687Z,19.07
2018-04-25T11:43:01.790Z,19.21
2018-04-25T11:44:01.772Z,19.16
2018-04-25T11:45:01.737Z,18.94
2018-04-25T11:46:01.684Z,18.69
2018-04-25T11:47:01.679Z,18.63
2018-04-25T11:48:01.660Z,18.62
2018-04-25T11:49:01.611Z,18.57
2018-04-25T11:50:01.586Z,18.42
2018-04-25T11:51:01.580Z,18.52
2018-04-25T11:52:01.519Z,18.41
2018-04-25T11:53:01.489Z,18.44
2018-04-25T11:54:01.507Z,18.30
2018-04-25T11:55:01.433Z,18.32
2018-04-25T11:56:01.403Z,18.37
2018-04-25T11:57:01.354Z,18.32
2018-04-25T11:58:01.352Z,18.32
2018-04-25T11:59:01.353Z,18.32
2018-04-25T12:00:01.285Z,18.30
2018-04-25T12:01:01.259Z,18.30
2018-04-25T12:02:01.223Z,18.15
2018-04-25T12:03:01.215Z,18.17
2018-04-25T12:04:01.176Z,18.02
2018-04-25T12:05:02.489Z,17.99
2018-04-25T12:06:01.117Z,18.07
2018-04-25T12:07:01.072Z,18.11
2018-04-25T12:08:01.049Z,18.15
2018-04-25T12:09:01.009Z,18.07
2018-04-25T12:10:01.011Z,18.00
2018-04-25T12:11:00.960Z,18.07
2018-04-25T12:12:00.930Z,18.08
2018-04-25T12:13:00.976Z,18.10
2018-04-25T12:14:00.869Z,18.18
2018-04-25T12:15:00.848Z,18.03
2018-04-25T12:16:00.827Z,17.99
2018-04-25T12:17:00.787Z,17.97
2018-04-25T12:18:00.752Z,18.00
2018-04-25T12:19:00.738Z,18.03
2018-04-25T12:20:00.691Z,18.10
2018-04-25T12:21:00.820Z,17.99
2018-04-25T12:22:00.613Z,18.23
2018-04-25T12:23:00.580Z,18.18
2018-04-25T12:24:00.549Z,18.20
2018-04-25T12:25:00.515Z,18.14
2018-04-25T12:26:00.488Z,18.07
2018-04-25T12:27:00.461Z,17.97
2018-04-25T12:28:00.431Z,17.90
2018-04-25T12:29:00.391Z,17.93
2018-04-25T12:30:00.363Z,18.02
2018-04-25T12:31:00.348Z,18.20
2018-04-25T12:32:00.312Z,18.17
2018-04-25T12:33:00.358Z,17.97
2018-04-25T12:34:00.237Z,18.02
2018-04-25T12:35:00.241Z,18.02
2018-04-25T12:36:00.182Z,18.02
2018-04-25T12:37:00.181Z,18.23
2018-04-25T12:38:00.111Z,18.26
2018-04-25T12:39:00.089Z,18.05
2018-04-25T12:40:00.038Z,18.11
2018-04-25T12:41:00.019Z,17.93
2018-04-25T12:41:59.991Z,17.89
2018-04-25T12:42:59.942Z,17.92
2018-04-25T12:43:59.951Z,17.93
2018-04-25T12:44:59.898Z,18.10
2018-04-25T12:45:59.872Z,18.11
2018-04-25T12:46:59.848Z,18.27
2018-04-25T12:47:59.817Z,18.14
2018-04-25T12:48:59.804Z,18.26
2018-04-25T12:49:59.744Z,18.27
2018-04-25T12:50:59.723Z,18.05
2018-04-25T12:51:59.682Z,18.26
2018-04-25T12:52:59.650Z,18.17
2018-04-25T12:53:59.626Z,18.25
2018-04-25T12:54:59.585Z,18.30
2018-04-25T12:55:59.583Z,18.25
2018-04-25T12:56:59.537Z,18.37
2018-04-25T12:57:59.488Z,18.45
2018-04-25T12:58:59.475Z,18.41